createdAt,value
2019-02-08T00:00:35.087Z,1.30
2019-02-08T00:03:05.324Z,1.30
2019-02-08T00:05:37.585Z,1.20
2019-02-08T00:08:11.126Z,1.30
2019-02-08T00:10:43.968Z,1.20
2019-02-08T00:13:15.458Z,1.30
2019-02-08T00:15:44.170Z,1.20
2019-02-08T00:18:14.595Z,1.20
2019-02-08T00:20:45.359Z,1.20
2019-02-08T00:23:26.391Z,1.20
2019-02-08T00:25:50.355Z,1.10
2019-02-08T00:28:21.474Z,1.10
2019-02-08T00:30:53.338Z,1.10
2019-02-08T00:33:23.940Z,1.10
2019-02-08T00:35:54.372Z,1.10
2019-02-08T00:38:27.032Z,1.10
2019-02-08T00:40:58.850Z,1.10
2019-02-08T00:43:30.414Z,1.10
2019-02-08T00:46:02.901Z,1.10
2019-02-08T00:48:35.849Z,1.10
2019-02-08T00:51:06.497Z,1.10
2019-02-08T00:53:37.837Z,1.10
2019-02-08T00:56:12.060Z,1.10
2019-02-08T00:58:43.402Z,1.10
2019-02-08T01:01:14.837Z,1.10
2019-02-08T01:03:46.674Z,1.10
2019-02-08T01:06:18.674Z,1.00
2019-02-08T01:08:51.056Z,1.10
2019-02-08T01:11:24.239Z,1.10
2019-02-08T01:13:55.910Z,1.10
2019-02-08T01:16:27.364Z,1.10
2019-02-08T01:18:58.486Z,1.10
2019-02-08T01:21:29.134Z,1.10
2019-02-08T01:24:01.120Z,1.10
2019-02-08T01:26:32.456Z,1.10
2019-02-08T01:29:02.592Z,1.10
2019-02-08T01:31:35.504Z,1.00
2019-02-08T01:34:06.238Z,1.00
2019-02-08T01:36:38.524Z,1.10
2019-02-08T01:39:10.276Z,1.10
2019-02-08T01:41:40.656Z,1.10
2019-02-08T01:44:12.741Z,1.00
2019-02-08T01:46:45.115Z,1.00
2019-02-08T01:49:17.167Z,1.00
2019-02-08T01:51:49.096Z,1.00
2019-02-08T01:54:19.944Z,0.90
2019-02-08T01:56:51.812Z,0.90
2019-02-08T01:59:24.370Z,0.90
2019-02-08T02:01:55.373Z,0.90
2019-02-08T02:04:28.524Z,0.90
2019-02-08T02:07:01.518Z,0.90
2019-02-08T02:09:33.969Z,0.90
2019-02-08T02:12:07.113Z,0.90
2019-02-08T02:14:38.148Z,0.90
2019-02-08T02:17:10.746Z,0.90
2019-02-08T02:19:44.513Z,0.90
2019-02-08T02:22:15.470Z,0.90
2019-02-08T02:24:49.545Z,0.90
2019-02-08T02:27:20.328Z,0.90
2019-02-08T02:29:51.401Z,0.90
2019-02-08T02:32:21.770Z,0.90
2019-02-08T02:34:52.266Z,0.90
2019-02-08T02:37:22.318Z,1.00
2019-02-08T02:39:53.333Z,1.00
2019-02-08T02:42:24.132Z,1.00
2019-02-08T02:44:56.977Z,0.90
2019-02-08T02:47:27.878Z,1.00
2019-02-08T02:49:59.714Z,0.90
2019-02-08T02:52:30.108Z,0.90
2019-02-08T02:54:59.673Z,0.90
2019-02-08T02:57:33.262Z,1.00
2019-02-08T03:00:07.318Z,0.90
2019-02-08T03:02:39.609Z,0.90
2019-02-08T03:05:12.249Z,0.90
2019-02-08T03:07:42.710Z,0.90
2019-02-08T03:10:15.174Z,0.90
2019-02-08T03:12:47.210Z,0.90
2019-02-08T03:15:19.352Z,0.90
2019-02-08T03:17:54.249Z,0.90
2019-02-08T03:20:26.604Z,0.80
2019-02-08T03:22:55.741Z,0.90
2019-02-08T03:25:28.874Z,0.80
2019-02-08T03:28:00.141Z,0.80
2019-02-08T03:30:59.193Z,0.80
2019-02-08T03:33:32.187Z,0.80
2019-02-08T03:36:05.546Z,0.80
2019-02-08T03:38:37.512Z,0.80
2019-02-08T03:41:11.085Z,0.80
2019-02-08T03:43:42.550Z,0.80
2019-02-08T03:46:14.266Z,0.80
2019-02-08T03:48:46.831Z,0.80
2019-02-08T03:51:19.389Z,0.70
2019-02-08T03:53:50.231Z,0.80
2019-02-08T03:56:20.448Z,0.70
2019-02-08T03:58:51.756Z,0.70
2019-02-08T04:01:24.296Z,0.70
2019-02-08T04:03:57.440Z,0.70
2019-02-08T04:06:28.300Z,0.70
2019-02-08T04:09:01.734Z,0.70
2019-02-08T04:11:34.483Z,0.70
2019-02-08T04:14:06.538Z,0.70
2019-02-08T04:16:40.391Z,0.70
2019-02-08T04:19:12.868Z,0.70
2019-02-08T04:21:43.861Z,0.80
2019-02-08T04:24:14.920Z,0.80
2019-02-08T04:26:47.413Z,0.80
2019-02-08T04:29:18.542Z,0.80
2019-02-08T04:31:49.528Z,0.80
2019-02-08T04:34:21.867Z,0.80
2019-02-08T04:36:53.708Z,0.80
2019-02-08T04:39:27.176Z,0.80
2019-02-08T04:42:00.716Z,0.90
2019-02-08T04:44:33.102Z,0.90
2019-02-08T04:47:08.909Z,0.90
2019-02-08T04:49:40.809Z,0.90
2019-02-08T04:52:11.149Z,1.00
2019-02-08T04:54:42.165Z,1.00
2019-02-08T04:57:15.801Z,1.00
2019-02-08T04:59:47.855Z,1.10
2019-02-08T05:02:20.208Z,1.10
2019-02-08T05:04:50.289Z,1.10
2019-02-08T05:07:22.809Z,1.10
2019-02-08T05:09:54.284Z,1.00
2019-02-08T05:12:24.607Z,1.10
2019-02-08T05:14:56.045Z,1.10
2019-02-08T05:17:26.917Z,1.10
2019-02-08T05:19:59.257Z,1.10
2019-02-08T05:22:30.647Z,1.20
2019-02-08T05:25:04.237Z,1.10
2019-02-08T05:27:36.615Z,1.20
2019-02-08T05:30:08.620Z,1.20
2019-02-08T05:32:39.661Z,1.20
2019-02-08T05:35:12.779Z,1.20
2019-02-08T05:37:44.416Z,1.20
2019-02-08T05:40:16.171Z,1.20
2019-02-08T05:42:50.102Z,1.20
2019-02-08T05:45:21.493Z,1.30
2019-02-08T05:47:54.601Z,1.30
2019-02-08T05:50:26.444Z,1.20
2019-02-08T05:52:57.005Z,1.30
2019-02-08T05:55:29.653Z,1.30
2019-02-08T05:58:00.152Z,1.30
2019-02-08T06:00:37.453Z,1.40
2019-02-08T06:03:11.288Z,1.30
2019-02-08T06:05:43.101Z,1.40
2019-02-08T06:08:13.938Z,1.40
2019-02-08T06:10:46.477Z,1.40
2019-02-08T06:13:19.297Z,1.40
2019-02-08T06:15:52.209Z,1.40
2019-02-08T06:18:23.005Z,1.40
2019-02-08T06:20:57.514Z,1.40
2019-02-08T06:23:29.571Z,1.40
2019-02-08T06:26:00.149Z,1.40
2019-02-08T06:28:30.972Z,1.40
2019-02-08T06:31:06.710Z,1.40
2019-02-08T06:33:37.208Z,1.40
2019-02-08T06:36:08.208Z,1.40
2019-02-08T06:38:40.577Z,1.50
2019-02-08T06:41:12.733Z,1.50
2019-02-08T06:43:54.469Z,1.50
2019-02-08T06:46:23.176Z,1.50
2019-02-08T06:48:56.161Z,1.50
2019-02-08T06:51:26.902Z,1.50
2019-02-08T06:53:59.741Z,1.50
2019-02-08T06:56:46.700Z,1.50
2019-02-08T06:59:40.701Z,1.50
2019-02-08T07:02:23.842Z,1.50
2019-02-08T07:05:29.656Z,1.50
2019-02-08T07:08:17.471Z,1.50
2019-02-08T07:11:04.588Z,1.50
2019-02-08T07:13:55.573Z,1.60
2019-02-08T07:16:58.908Z,1.60
2019-02-08T07:19:52.456Z,1.70
2019-02-08T07:22:34.577Z,1.60
2019-02-08T07:25:25.480Z,1.70
2019-02-08T07:28:20.089Z,1.70
2019-02-08T07:31:06.009Z,1.70
2019-02-08T07:33:58.112Z,1.70
2019-02-08T07:36:41.473Z,1.70
2019-02-08T07:39:19.780Z,1.70
2019-02-08T07:41:56.905Z,1.70
2019-02-08T07:44:40.440Z,1.70
2019-02-08T07:47:45.460Z,1.90
2019-02-08T07:50:31.507Z,1.90
2019-02-08T07:53:31.201Z,1.80
2019-02-08T07:56:14.552Z,1.90
2019-02-08T07:58:52.462Z,1.90
2019-02-08T08:01:51.135Z,1.90
2019-02-08T08:04:43.305Z,1.90
2019-02-08T08:07:30.990Z,2.00
2019-02-08T08:10:21.293Z,2.00
2019-02-08T08:13:03.980Z,2.10
2019-02-08T08:16:02.001Z,2.20
2019-02-08T08:21:50.722Z,2.20
2019-02-08T08:24:36.948Z,2.20
2019-02-08T08:27:38.368Z,2.30
2019-02-08T08:30:33.063Z,2.30
2019-02-08T08:33:23.008Z,2.30
2019-02-08T08:36:30.800Z,2.20
2019-02-08T08:39:28.679Z,2.30
2019-02-08T08:42:13.881Z,2.20
2019-02-08T08:45:05.249Z,2.30
2019-02-08T08:47:53.737Z,2.30
2019-02-08T08:50:38.266Z,2.30
2019-02-08T08:53:26.285Z,2.40
2019-02-08T08:56:15.979Z,2.40
2019-02-08T08:59:16.009Z,2.50
2019-02-08T09:02:07.853Z,2.50
2019-02-08T09:04:56.361Z,2.60
2019-02-08T09:08:00.723Z,2.60
2019-02-08T09:10:53.345Z,2.70
2019-02-08T09:13:37.462Z,2.70
2019-02-08T09:16:16.138Z,2.80
2019-02-08T09:19:12.329Z,2.80
2019-02-08T09:21:55.177Z,2.90
2019-02-08T09:24:47.913Z,2.90
2019-02-08T09:27:32.353Z,3.00
2019-02-08T09:30:15.020Z,3.00
2019-02-08T09:33:00.089Z,3.10
2019-02-08T09:35:41.676Z,3.20
2019-02-08T09:38:33.032Z,3.20
2019-02-08T09:41:20.584Z,3.30
2019-02-08T09:44:15.452Z,3.40
2019-02-08T09:47:08.101Z,3.50
2019-02-08T09:49:58.607Z,3.50
2019-02-08T09:53:06.569Z,3.50
2019-02-08T09:55:59.985Z,3.40
2019-02-08T09:58:51.137Z,3.40
2019-02-08T10:01:38.560Z,3.30
2019-02-08T10:04:48.478Z,3.40
2019-02-08T10:07:32.700Z,3.50
2019-02-08T10:10:21.220Z,3.50
2019-02-08T10:13:14.777Z,3.50
2019-02-08T10:16:17.089Z,3.40
2019-02-08T10:19:09.118Z,3.40
2019-02-08T10:21:48.205Z,3.40
2019-02-08T10:24:34.368Z,3.40
2019-02-08T10:27:23.994Z,3.40
2019-02-08T10:30:16.073Z,3.40
2019-02-08T10:33:06.364Z,3.50
2019-02-08T10:35:55.389Z,3.50
2019-02-08T10:38:43.278Z,3.40
2019-02-08T10:41:34.938Z,3.40
2019-02-08T10:44:31.477Z,3.40
2019-02-08T10:47:27.101Z,3.30
2019-02-08T10:50:17.556Z,3.30
2019-02-08T10:53:05.583Z,3.20
2019-02-08T10:55:54.888Z,3.30
2019-02-08T10:58:45.009Z,3.20
2019-02-08T11:01:33.652Z,3.30
2019-02-08T11:04:22.112Z,3.30
2019-02-08T11:07:16.910Z,3.30
2019-02-08T11:10:04.125Z,3.30
2019-02-08T11:12:53.381Z,3.30
2019-02-08T11:15:46.070Z,3.30
2019-02-08T11:18:35.564Z,3.30
2019-02-08T11:21:06.674Z,3.30
2019-02-08T11:23:39.361Z,3.30
2019-02-08T11:26:11.757Z,3.20
2019-02-08T11:28:41.393Z,3.20
2019-02-08T11:31:14.098Z,3.10
2019-02-08T11:33:44.653Z,3.10
2019-02-08T11:36:15.053Z,3.10
2019-02-08T11:38:46.729Z,3.10
2019-02-08T11:41:18.612Z,3.00
2019-02-08T11:43:50.432Z,3.00
2019-02-08T11:46:22.922Z,3.00
2019-02-08T11:54:32.596Z,3.10
2019-02-08T11:57:03.420Z,3.10
2019-02-08T11:59:34.465Z,3.10
2019-02-08T12:02:06.730Z,3.10
2019-02-08T12:04:39.508Z,3.00
2019-02-08T12:07:11.703Z,3.10
2019-02-08T12:09:43.193Z,3.10
2019-02-08T12:12:15.535Z,3.00
2019-02-08T12:14:46.409Z,3.00
2019-02-08T12:17:17.176Z,3.00
2019-02-08T12:19:49.295Z,3.00
2019-02-08T12:22:20.109Z,3.10
2019-02-08T12:24:52.594Z,3.20
2019-02-08T12:27:21.724Z,3.30
2019-02-08T12:29:50.986Z,3.40
2019-02-08T12:32:21.796Z,3.30
2019-02-08T12:34:54.200Z,3.30
2019-02-08T12:37:28.847Z,3.30
2019-02-08T12:40:02.201Z,3.20
2019-02-08T12:42:33.605Z,3.20
2019-02-08T12:45:03.557Z,3.20
2019-02-08T12:47:34.485Z,3.20
2019-02-08T12:50:05.756Z,3.20
2019-02-08T12:52:36.749Z,3.20
2019-02-08T12:55:07.983Z,3.20
2019-02-08T12:57:38.953Z,3.10
2019-02-08T13:00:14.538Z,3.10
2019-02-08T13:02:49.136Z,3.00
2019-02-08T13:05:21.676Z,3.00
2019-02-08T13:07:53.138Z,3.00
2019-02-08T13:10:24.908Z,2.90
2019-02-08T13:12:56.045Z,2.90
2019-02-08T13:15:28.274Z,2.90
2019-02-08T13:17:58.812Z,2.90
2019-02-08T13:20:31.791Z,2.90
2019-02-08T13:23:03.958Z,2.90
2019-02-08T13:25:34.953Z,2.80
2019-02-08T13:28:04.815Z,2.90
2019-02-08T13:30:37.374Z,2.80
2019-02-08T13:33:08.845Z,2.80
2019-02-08T13:35:42.476Z,2.80
2019-02-08T13:38:14.388Z,2.80
2019-02-08T13:40:45.852Z,2.80
2019-02-08T13:43:16.553Z,2.80
2019-02-08T13:45:48.966Z,2.90
2019-02-08T13:48:19.904Z,2.80
2019-02-08T13:50:51.246Z,2.80
2019-02-08T13:53:22.158Z,2.80
2019-02-08T13:55:52.112Z,2.80
2019-02-08T13:58:23.205Z,2.70
2019-02-08T14:00:54.063Z,2.70
2019-02-08T14:03:24.185Z,2.70
2019-02-08T14:05:53.340Z,2.70
2019-02-08T14:08:27.949Z,2.70
2019-02-08T14:10:59.185Z,2.60
2019-02-08T14:13:29.204Z,2.60
2019-02-08T14:16:02.577Z,2.60
2019-02-08T14:18:35.091Z,2.60
2019-02-08T14:21:07.148Z,2.50
2019-02-08T14:23:38.006Z,2.50
2019-02-08T14:26:09.838Z,2.50
2019-02-08T14:28:41.206Z,2.40
2019-02-08T14:31:12.764Z,2.40
2019-02-08T14:33:45.396Z,2.40
2019-02-08T14:36:16.111Z,2.30
2019-02-08T14:38:49.375Z,2.30
2019-02-08T14:41:20.413Z,2.20
2019-02-08T14:43:52.176Z,2.20
2019-02-08T14:46:22.988Z,2.10
2019-02-08T14:48:55.772Z,2.10
2019-02-08T14:51:26.512Z,2.10
2019-02-08T14:53:59.061Z,2.00
2019-02-08T14:56:30.830Z,2.00
2019-02-08T14:59:02.619Z,2.00
2019-02-08T15:01:34.636Z,2.00
2019-02-08T15:04:07.664Z,2.00
2019-02-08T15:06:39.002Z,1.90
2019-02-08T15:09:11.391Z,1.90
2019-02-08T15:11:43.496Z,1.90
2019-02-08T15:14:14.808Z,1.80
2019-02-08T15:16:46.757Z,1.80
2019-02-08T15:19:17.858Z,1.80
2019-02-08T15:21:46.925Z,1.80
2019-02-08T15:24:17.066Z,1.70
2019-02-08T15:26:48.123Z,1.70
2019-02-08T15:29:20.677Z,1.70
2019-02-08T15:31:53.172Z,1.70
2019-02-08T15:34:25.710Z,1.70
2019-02-08T15:36:56.849Z,1.60
2019-02-08T15:39:28.745Z,1.60
2019-02-08T15:42:01.295Z,1.60
2019-02-08T15:44:32.925Z,1.60
2019-02-08T15:47:04.136Z,1.60
2019-02-08T15:49:37.516Z,1.60
2019-02-08T15:52:09.006Z,1.50
2019-02-08T15:54:40.456Z,1.60
2019-02-08T15:57:12.182Z,1.50
2019-02-08T15:59:41.344Z,1.50
2019-02-08T16:02:12.912Z,1.50
2019-02-08T16:04:45.822Z,1.50
2019-02-08T16:07:16.746Z,1.40
2019-02-08T16:09:52.244Z,1.40
2019-02-08T16:12:22.404Z,1.40
2019-02-08T16:14:55.122Z,1.40
2019-02-08T16:17:26.288Z,1.40
2019-02-08T16:19:56.900Z,1.40
2019-02-08T16:22:28.969Z,1.30
2019-02-08T16:25:00.909Z,1.30
2019-02-08T16:27:39.772Z,1.30
2019-02-08T16:30:07.082Z,1.30
2019-02-08T16:32:37.578Z,1.30
2019-02-08T16:35:07.067Z,1.30
2019-02-08T16:37:36.148Z,1.30
2019-02-08T16:40:09.142Z,1.30
2019-02-08T16:42:39.957Z,1.30
2019-02-08T16:45:11.952Z,1.30
2019-02-08T16:47:42.880Z,1.30
2019-02-08T16:50:16.233Z,1.30
2019-02-08T16:52:47.657Z,1.30
2019-02-08T16:55:19.433Z,1.30
2019-02-08T16:57:50.474Z,1.30
2019-02-08T17:00:22.364Z,1.30
2019-02-08T17:02:52.873Z,1.30
2019-02-08T17:05:27.100Z,1.30
2019-02-08T17:07:56.925Z,1.40
2019-02-08T17:10:31.293Z,1.40
2019-02-08T17:13:02.640Z,1.30
2019-02-08T17:15:33.556Z,1.30
2019-02-08T17:18:06.162Z,1.30
2019-02-08T17:20:39.297Z,1.30
2019-02-08T17:23:09.893Z,1.30
2019-02-08T17:25:42.012Z,1.20
2019-02-08T17:28:13.812Z,1.20
2019-02-08T17:30:44.684Z,1.20
2019-02-08T17:33:16.198Z,1.20
2019-02-08T17:35:47.976Z,1.20
2019-02-08T17:38:19.920Z,1.20
2019-02-08T17:40:53.905Z,1.10
2019-02-08T17:43:26.464Z,1.10
2019-02-08T17:45:57.939Z,1.10
2019-02-08T17:48:30.057Z,1.10
2019-02-08T17:51:00.953Z,1.10
2019-02-08T17:53:31.800Z,1.10
2019-02-08T17:56:03.845Z,1.10
2019-02-08T17:58:34.316Z,1.00
2019-02-08T18:01:06.209Z,0.90
2019-02-08T18:03:38.896Z,0.90
2019-02-08T18:06:12.837Z,0.90
2019-02-08T18:08:43.872Z,0.90
2019-02-08T18:11:16.577Z,0.80
2019-02-08T18:13:46.793Z,0.80
2019-02-08T18:16:17.622Z,0.70
2019-02-08T18:18:49.671Z,0.70
2019-02-08T18:21:25.005Z,0.70
2019-02-08T18:23:55.926Z,0.70
2019-02-08T18:26:25.706Z,0.70
2019-02-08T18:28:58.417Z,0.70
2019-02-08T18:31:30.507Z,0.70
2019-02-08T18:34:01.904Z,0.70
2019-02-08T18:36:32.913Z,0.70
2019-02-08T18:39:03.856Z,0.70
2019-02-08T18:41:34.760Z,0.70
2019-02-08T18:44:05.486Z,0.70
2019-02-08T18:46:37.588Z,0.70
2019-02-08T18:49:10.934Z,0.60
2019-02-08T18:51:43.518Z,0.60
2019-02-08T18:54:15.112Z,0.60
2019-02-08T18:56:46.472Z,0.60
2019-02-08T18:59:18.314Z,0.60
2019-02-08T19:01:54.597Z,0.60
2019-02-08T19:04:26.059Z,0.50
2019-02-08T19:06:59.641Z,0.50
2019-02-08T19:09:30.553Z,0.50
2019-02-08T19:12:04.360Z,0.60
2019-02-08T19:14:36.310Z,0.50
2019-02-08T19:17:08.456Z,0.60
2019-02-08T19:19:40.437Z,0.60
2019-02-08T19:22:13.897Z,0.60
2019-02-08T19:24:47.447Z,0.60
2019-02-08T19:27:18.378Z,0.60
2019-02-08T19:29:47.466Z,0.70
2019-02-08T19:32:17.997Z,0.80
2019-02-08T19:34:47.937Z,0.70
2019-02-08T19:37:18.727Z,0.70
2019-02-08T19:39:49.956Z,0.70
2019-02-08T19:42:20.970Z,0.70
2019-02-08T19:44:51.317Z,0.80
2019-02-08T19:47:23.114Z,0.80
2019-02-08T19:49:53.961Z,0.90
2019-02-08T19:52:24.551Z,0.90
2019-02-08T19:54:56.490Z,0.90
2019-02-08T19:57:27.949Z,1.00
2019-02-08T19:59:58.126Z,1.10
2019-02-08T20:02:29.600Z,1.10
2019-02-08T20:05:01.712Z,1.10
2019-02-08T20:07:34.633Z,1.10
2019-02-08T20:10:07.225Z,1.20
2019-02-08T20:12:38.856Z,1.20
2019-02-08T20:15:13.538Z,1.20
2019-02-08T20:17:46.301Z,1.30
2019-02-08T20:20:18.023Z,1.30
2019-02-08T20:22:49.461Z,1.30
2019-02-08T20:25:21.436Z,1.40
2019-02-08T20:27:52.456Z,1.50
2019-02-08T20:30:24.150Z,1.50
2019-02-08T20:32:55.209Z,1.60
2019-02-08T20:35:46.372Z,1.60
2019-02-08T20:38:19.936Z,1.50
2019-02-08T20:40:52.106Z,1.60
2019-02-08T20:43:24.787Z,1.60
2019-02-08T20:45:56.433Z,1.60
2019-02-08T20:48:28.706Z,1.60
2019-02-08T20:50:57.451Z,1.60
2019-02-08T20:53:31.053Z,1.60
2019-02-08T20:56:03.063Z,1.60
2019-02-08T20:58:33.049Z,1.60
2019-02-08T21:01:06.756Z,1.60
2019-02-08T21:03:37.682Z,1.50
2019-02-08T21:06:11.656Z,1.60
2019-02-08T21:08:42.669Z,1.60
2019-02-08T21:11:15.281Z,1.60
2019-02-08T21:13:47.507Z,1.60
2019-02-08T21:16:18.376Z,1.60
2019-02-08T21:18:50.273Z,1.60
2019-02-08T21:21:22.152Z,1.60
2019-02-08T21:23:52.681Z,1.60
2019-02-08T21:26:26.406Z,1.70
2019-02-08T21:28:58.348Z,1.70
2019-02-08T21:31:29.594Z,1.70
2019-02-08T21:34:02.032Z,1.70
2019-02-08T21:36:38.990Z,1.70
2019-02-08T21:39:09.640Z,1.70
2019-02-08T21:41:42.768Z,1.70
2019-02-08T21:44:13.609Z,1.70
2019-02-08T21:46:44.937Z,1.80
2019-02-08T21:49:17.161Z,1.80
2019-02-08T21:51:48.153Z,1.80
2019-02-08T21:54:19.132Z,1.80
2019-02-08T21:56:54.380Z,1.80
2019-02-08T21:59:25.577Z,1.90
2019-02-08T22:01:58.065Z,1.90
2019-02-08T22:04:30.020Z,1.90
2019-02-08T22:07:02.489Z,1.90
2019-02-08T22:09:34.289Z,2.00
2019-02-08T22:12:06.024Z,2.00
2019-02-08T22:14:36.593Z,2.00
2019-02-08T22:17:06.560Z,1.90
2019-02-08T22:19:38.026Z,1.90
2019-02-08T22:22:10.633Z,2.00
2019-02-08T22:24:43.754Z,2.00
2019-02-08T22:27:14.661Z,2.00
2019-02-08T22:29:48.072Z,2.00
2019-02-08T22:32:21.629Z,2.00
2019-02-08T22:34:56.205Z,2.00
2019-02-08T22:37:26.971Z,2.00
2019-02-08T22:39:57.453Z,2.00
2019-02-08T22:42:29.048Z,1.90
2019-02-08T22:45:08.558Z,1.90
2019-02-08T22:47:35.129Z,2.00
2019-02-08T22:50:05.436Z,2.00
2019-02-08T22:52:35.789Z,1.90
2019-02-08T22:55:07.436Z,2.00
2019-02-08T22:57:39.338Z,2.00
2019-02-08T23:00:27.692Z,1.90
2019-02-08T23:02:58.249Z,1.90
2019-02-08T23:05:29.581Z,1.90
2019-02-08T23:07:59.400Z,1.90
2019-02-08T23:10:30.367Z,1.90
2019-02-08T23:12:59.089Z,1.90
2019-02-08T23:15:29.674Z,1.90
2019-02-08T23:18:00.498Z,1.90
2019-02-08T23:20:33.993Z,1.90
2019-02-08T23:23:06.997Z,1.90
2019-02-08T23:25:39.197Z,1.80
2019-02-08T23:28:10.700Z,1.80
2019-02-08T23:30:43.349Z,1.80
2019-02-08T23:33:15.228Z,1.90
2019-02-08T23:35:47.997Z,1.90
2019-02-08T23:38:21.576Z,1.80
2019-02-08T23:40:52.753Z,1.80
2019-02-08T23:43:26.325Z,1.80
2019-02-08T23:45:56.185Z,1.80
2019-02-08T23:48:30.344Z,1.80
2019-02-08T23:51:02.961Z,1.80
2019-02-08T23:53:33.968Z,1.80
2019-02-08T23:56:06.136Z,1.70
2019-02-08T23:58:37.048Z,1.80
